Time;durP1;ratioP1;P1;durP2;ratioP2;P2;SDS_P1;SDS_P2;PMS_P1;PMS_P2;Temp;Humidity;BMP_temperature;BMP_pressure;BME280_temperature;BME280_humidity;BME280_pressure;Samples;Min_cycle;Max_cycle;Signal;HPM_P1;HPM_P2
2022/10/03 00:02:17;;;;;;;7.57;2.53;;;8.40;99.90;;;;;;5013964;28;20382;-48
2022/10/03 00:05:06;;;;;;;5.65;2.13;;;8.40;99.90;;;;;;4986362;28;20102;-46
2022/10/03 00:07:59;;;;;;;5.45;2.22;;;8.30;99.90;;;;;;4996148;28;20370;-45
2022/10/03 00:10:34;;;;;;;9.82;2.47;;;8.30;99.90;;;;;;5010095;28;20030;-53
2022/10/03 00:13:11;;;;;;;3.92;2.28;;;8.30;99.90;;;;;;5011898;28;20026;-45
2022/10/03 00:15:46;;;;;;;6.22;2.30;;;8.30;99.90;;;;;;5013952;28;20018;-46
2022/10/03 00:18:18;;;;;;;4.80;2.20;;;8.40;99.90;;;;;;5013536;28;20477;-45
2022/10/03 00:20:52;;;;;;;6.22;2.28;;;8.40;99.90;;;;;;5013699;28;20026;-50
2022/10/03 00:23:38;;;;;;;4.95;2.25;;;8.40;99.90;;;;;;5013376;28;20025;-50
2022/10/03 00:26:41;;;;;;;5.07;2.83;;;8.40;99.90;;;;;;5013479;28;20128;-47
2022/10/03 00:29:34;;;;;;;5.35;2.40;;;8.40;99.90;;;;;;4967008;28;20030;-48
2022/10/03 00:32:32;;;;;;;5.50;2.67;;;8.40;99.90;;;;;;4987114;28;20034;-46
2022/10/03 00:35:19;;;;;;;5.38;2.40;;;8.50;99.90;;;;;;5013123;28;20076;-49
2022/10/03 00:37:56;;;;;;;7.68;2.92;;;8.50;99.90;;;;;;4988813;28;20477;-45
2022/10/03 00:41:12;;;;;;;5.35;2.28;;;8.40;99.90;;;;;;5011364;28;20029;-50
2022/10/03 00:44:03;;;;;;;5.10;2.30;;;8.40;99.90;;;;;;4947917;28;20046;-48
2022/10/03 00:46:56;;;;;;;4.75;2.20;;;8.40;99.90;;;;;;5004721;28;20018;-51
2022/10/03 00:49:42;;;;;;;5.35;2.40;;;8.30;99.90;;;;;;5012424;28;20083;-47
2022/10/03 00:52:11;;;;;;;7.93;2.30;;;8.20;99.90;;;;;;5000115;28;20054;-51
2022/10/03 00:54:51;;;;;;;8.15;2.20;;;8.20;99.90;;;;;;5012874;28;20388;-45
2022/10/03 00:57:47;;;;;;;5.15;2.42;;;8.10;99.90;;;;;;5000068;28;20096;-52
2022/10/03 01:00:17;;;;;;;7.40;2.40;;;8.10;99.90;;;;;;5012756;28;20104;-48
2022/10/03 01:02:42;;;;;;;8.07;2.67;;;8.10;99.90;;;;;;5011858;28;20240;-50
2022/10/03 01:05:40;;;;;;;6.20;2.20;;;8.10;99.90;;;;;;5012527;28;20454;-45
2022/10/03 01:08:28;;;;;;;9.63;2.92;;;8.10;99.90;;;;;;5012545;28;20118;-49
2022/10/03 01:11:01;;;;;;;7.55;2.83;;;8.10;99.90;;;;;;5010180;28;20040;-49
2022/10/03 01:13:52;;;;;;;6.40;2.28;;;8.20;99.90;;;;;;4999833;28;20508;-51
2022/10/03 01:16:43;;;;;;;6.10;2.40;;;8.20;99.90;;;;;;4997298;28;20080;-48
2022/10/03 01:19:27;;;;;;;3.90;1.92;;;8.20;99.90;;;;;;5012483;28;20384;-50
2022/10/03 01:22:10;;;;;;;7.30;2.80;;;8.10;99.90;;;;;;4991218;28;20026;-47
2022/10/03 01:24:51;;;;;;;4.35;2.25;;;8.00;99.90;;;;;;5005798;28;20056;-51
2022/10/03 01:30:21;;;;;;;5.22;2.10;;;8.00;99.90;;;;;;5007002;28;20069;-45
2022/10/03 01:30:22;;;;;;;3.63;1.95;;;7.90;99.90;;;;;;5012114;28;20026;-50
2022/10/03 01:32:53;;;;;;;3.60;1.90;;;7.90;99.90;;;;;;5006615;28;20040;-47
2022/10/03 01:35:35;;;;;;;6.00;2.20;;;7.90;99.90;;;;;;5011915;28;20021;-46
2022/10/03 01:38:31;;;;;;;5.53;2.13;;;7.90;99.90;;;;;;4993063;28;20026;-52
2022/10/03 01:41:14;;;;;;;5.63;2.30;;;7.80;99.90;;;;;;4997829;28;20062;-45
2022/10/03 01:43:57;;;;;;;5.13;2.22;;;7.80;99.90;;;;;;5006546;28;20551;-45
2022/10/03 01:46:33;;;;;;;6.25;2.38;;;7.80;99.90;;;;;;5004398;28;20030;-46
2022/10/03 01:49:31;;;;;;;4.13;1.80;;;7.80;99.90;;;;;;4998655;28;20326;-45
2022/10/03 01:52:11;;;;;;;5.35;1.85;;;7.70;99.90;;;;;;4993459;28;20035;-45
2022/10/03 01:54:55;;;;;;;7.38;2.13;;;7.70;99.90;;;;;;4986306;28;20477;-50
2022/10/03 01:57:38;;;;;;;4.28;2.30;;;7.80;99.90;;;;;;4997568;28;20026;-57
2022/10/03 02:00:20;;;;;;;5.05;1.95;;;7.80;99.90;;;;;;5011711;28;20057;-50
2022/10/03 02:03:00;;;;;;;5.15;2.63;;;7.70;99.90;;;;;;4998704;28;20386;-47
2022/10/03 02:05:44;;;;;;;;;;;7.70;99.90;;;;;;5012035;28;20034;-45
2022/10/03 02:08:16;;;;;;;4.90;2.40;;;7.80;99.90;;;;;;5011773;28;19910;-47
2022/10/03 02:11:07;;;;;;;5.50;2.50;;;7.70;99.90;;;;;;5006062;28;20018;-48
2022/10/03 02:13:51;;;;;;;6.68;2.25;;;7.70;99.90;;;;;;4991084;28;20477;-48
2022/10/03 02:16:35;;;;;;;6.25;2.42;;;7.70;99.90;;;;;;4994905;28;20037;-47
2022/10/03 02:19:17;;;;;;;6.85;2.17;;;7.70;99.90;;;;;;4992133;28;20503;-52
2022/10/03 02:21:51;;;;;;;5.70;2.17;;;7.60;99.90;;;;;;5011400;28;20109;-51
2022/10/03 02:24:35;;;;;;;5.95;2.35;;;7.60;99.90;;;;;;5011216;28;20492;-49
2022/10/03 02:27:23;;;;;;;4.88;1.95;;;7.70;99.90;;;;;;5010992;28;20489;-45
2022/10/03 02:30:20;;;;;;;6.35;2.00;;;7.70;99.90;;;;;;5011353;28;20037;-46
2022/10/03 02:33:16;;;;;;;7.05;2.33;;;7.70;99.90;;;;;;4925968;28;20036;-47
2022/10/03 02:36:10;;;;;;;4.28;2.28;;;7.70;99.90;;;;;;5011186;28;20416;-53
2022/10/03 02:38:48;;;;;;;5.97;2.22;;;7.60;99.90;;;;;;5011082;28;20388;-46
2022/10/03 02:41:34;;;;;;;5.65;2.53;;;7.60;99.90;;;;;;5011091;28;20022;-46
2022/10/03 02:44:37;;;;;;;5.85;2.05;;;7.60;99.90;;;;;;5010884;28;20050;-47
2022/10/03 02:47:15;;;;;;;8.02;2.40;;;7.50;99.90;;;;;;4981826;28;20033;-48
2022/10/03 02:50:05;;;;;;;6.45;2.40;;;7.40;99.90;;;;;;4994540;28;20063;-50
2022/10/03 02:53:00;;;;;;;6.22;2.65;;;7.40;99.90;;;;;;4995598;28;20102;-49
2022/10/03 02:55:46;;;;;;;6.03;2.10;;;7.40;99.90;;;;;;5011055;28;20465;-45
2022/10/03 02:58:37;;;;;;;6.53;2.08;;;7.40;99.90;;;;;;4985702;28;20448;-49
2022/10/03 03:01:26;;;;;;;7.10;2.05;;;7.40;99.90;;;;;;5013927;28;20034;-46
2022/10/03 03:04:16;;;;;;;9.07;2.15;;;7.40;99.90;;;;;;5014772;28;20408;-47
2022/10/03 03:06:53;;;;;;;7.45;2.13;;;7.40;99.90;;;;;;4989686;28;20036;-51
2022/10/03 03:09:56;;;;;;;7.22;2.08;;;7.40;99.90;;;;;;5014712;28;20028;-49
2022/10/03 03:12:49;;;;;;;5.63;2.10;;;7.30;99.90;;;;;;5014616;28;20032;-45
2022/10/03 03:15:36;;;;;;;8.77;2.00;;;7.20;99.90;;;;;;4990297;28;20034;-52
2022/10/03 03:18:21;;;;;;;7.70;2.47;;;7.30;99.90;;;;;;5011519;28;20381;-50
2022/10/03 03:21:11;;;;;;;6.25;2.20;;;7.20;99.90;;;;;;5014764;28;20034;-46
2022/10/03 03:23:53;;;;;;;7.20;1.80;;;7.20;99.90;;;;;;5014300;28;20041;-48
2022/10/03 03:26:34;;;;;;;3.92;2.00;;;7.10;99.90;;;;;;4998934;28;20041;-45
2022/10/03 03:29:22;;;;;;;3.40;1.92;;;7.10;99.90;;;;;;4991045;28;20027;-50
2022/10/03 03:32:02;;;;;;;5.30;2.10;;;7.10;99.90;;;;;;5008062;28;20026;-47
2022/10/03 03:34:41;;;;;;;4.18;1.90;;;7.20;99.90;;;;;;5014441;28;20034;-48
2022/10/03 03:37:33;;;;;;;10.27;2.10;;;7.10;99.90;;;;;;5014183;28;20225;-45
2022/10/03 03:40:34;;;;;;;5.72;2.20;;;7.10;99.90;;;;;;5014347;28;20113;-47
2022/10/03 03:43:08;;;;;;;4.80;2.10;;;7.10;99.90;;;;;;4986766;28;20425;-49
2022/10/03 03:45:53;;;;;;;5.47;2.17;;;7.10;99.90;;;;;;5011972;28;20030;-54
2022/10/03 03:48:47;;;;;;;5.50;2.25;;;7.10;99.90;;;;;;4999915;28;20030;-52
2022/10/03 03:51:32;;;;;;;4.93;1.83;;;7.00;99.90;;;;;;4982029;28;20018;-51
2022/10/03 03:54:06;;;;;;;3.50;1.77;;;7.00;99.90;;;;;;5011243;28;20025;-45
2022/10/03 03:56:54;;;;;;;6.55;1.92;;;6.90;99.90;;;;;;5011625;28;20492;-44
2022/10/03 03:59:49;;;;;;;3.67;2.05;;;6.90;99.90;;;;;;5001247;28;20050;-44
2022/10/03 04:03:08;;;;;;;5.03;1.63;;;6.90;99.90;;;;;;5002480;28;20064;-49
2022/10/03 04:06:04;;;;;;;2.10;1.33;;;6.80;99.90;;;;;;4915025;29;20040;-46
2022/10/03 04:08:44;;;;;;;4.00;1.80;;;6.90;99.90;;;;;;4915133;29;20454;-54
2022/10/03 04:11:22;;;;;;;;;;;6.90;99.90;;;;;;4995264;28;20468;-46
2022/10/03 04:14:10;;;;;;;4.30;1.98;;;6.80;99.90;;;;;;4987585;28;20365;-46
2022/10/03 04:20:01;;;;;;;6.00;2.38;;;6.80;99.90;;;;;;4992777;28;20040;-48
2022/10/03 04:22:47;;;;;;;6.60;1.90;;;6.90;99.90;;;;;;4993385;28;20568;-45
2022/10/03 04:25:27;;;;;;;3.80;1.90;;;7.00;99.90;;;;;;4988418;28;20042;-45
2022/10/03 04:28:18;;;;;;;5.78;1.95;;;7.10;99.90;;;;;;4993862;28;20057;-45
2022/10/03 04:31:05;;;;;;;4.88;2.88;;;7.20;99.90;;;;;;4982321;28;20034;-49
2022/10/03 04:34:08;;;;;;;3.45;1.85;;;7.30;99.90;;;;;;4993129;28;20050;-45
2022/10/03 04:36:46;;;;;;;7.65;2.47;;;7.30;99.90;;;;;;4991998;28;20485;-45
2022/10/03 04:39:17;;;;;;;5.57;2.53;;;7.30;99.90;;;;;;4992522;28;20026;-45
2022/10/03 04:41:49;;;;;;;5.15;2.25;;;7.30;99.90;;;;;;4993750;28;20418;-47
2022/10/03 04:44:18;;;;;;;7.63;2.70;;;7.30;99.90;;;;;;4993277;28;20096;-48
2022/10/03 04:46:56;;;;;;;8.07;2.53;;;7.40;99.90;;;;;;4973615;28;20033;-45
2022/10/03 04:49:41;;;;;;;7.05;2.60;;;7.40;99.90;;;;;;4989237;28;20101;-45
2022/10/03 04:52:50;;;;;;;8.10;2.70;;;7.40;99.90;;;;;;4990391;28;20029;-45
2022/10/03 04:55:22;;;;;;;10.55;2.95;;;7.50;99.90;;;;;;4914342;29;20542;-44
2022/10/03 04:58:21;;;;;;;6.32;2.92;;;7.50;99.90;;;;;;4909981;29;20099;-45
2022/10/03 05:00:59;;;;;;;7.75;3.00;;;7.60;99.90;;;;;;4968475;28;20034;-45
2022/10/03 05:03:33;;;;;;;5.10;2.60;;;7.60;99.90;;;;;;4991168;28;20065;-51
2022/10/03 05:06:07;;;;;;;6.68;2.80;;;7.70;99.90;;;;;;4992545;28;20031;-44
2022/10/03 05:08:38;;;;;;;9.60;2.60;;;7.70;99.90;;;;;;4991688;28;20494;-45
2022/10/03 05:11:28;;;;;;;5.85;2.28;;;7.70;99.90;;;;;;4991215;28;20490;-53
2022/10/03 05:13:59;;;;;;;;;;;7.60;99.90;;;;;;4993315;28;20030;-49
2022/10/03 05:16:30;;;;;;;6.53;2.08;;;7.50;99.90;;;;;;4985358;28;19917;-45
2022/10/03 05:19:02;;;;;;;6.82;1.92;;;7.40;99.90;;;;;;4992681;28;20076;-51
2022/10/03 05:22:00;;;;;;;7.05;1.90;;;7.30;99.90;;;;;;5007792;28;20113;-52
2022/10/03 05:24:37;;;;;;;7.28;2.00;;;7.30;99.90;;;;;;4958335;28;20042;-47
2022/10/03 05:27:26;;;;;;;5.90;1.98;;;7.40;99.90;;;;;;5012313;28;20397;-47
2022/10/03 05:30:21;;;;;;;3.92;2.17;;;7.40;99.90;;;;;;5012178;28;20034;-52
2022/10/03 05:32:57;;;;;;;4.93;1.98;;;7.40;99.90;;;;;;5012460;28;20111;-49
2022/10/03 05:35:26;;;;;;;8.38;2.88;;;7.30;99.90;;;;;;5012214;28;20028;-52
2022/10/03 05:38:16;;;;;;;3.97;2.10;;;7.30;99.90;;;;;;4995906;28;20130;-48
2022/10/03 05:40:59;;;;;;;5.82;1.90;;;7.40;99.90;;;;;;4992409;28;20041;-51
2022/10/03 05:44:03;;;;;;;5.75;2.30;;;7.40;99.90;;;;;;4992396;28;20205;-50
2022/10/03 05:46:34;;;;;;;5.00;2.42;;;7.40;99.90;;;;;;4992293;28;20517;-50
2022/10/03 05:49:18;;;;;;;4.80;2.53;;;7.50;99.90;;;;;;4992270;28;20026;-48
2022/10/03 05:52:24;;;;;;;6.53;2.67;;;7.60;99.90;;;;;;4992345;28;20026;-51
2022/10/03 05:55:34;;;;;;;10.52;2.47;;;7.70;99.90;;;;;;4991970;28;20056;-49
2022/10/03 05:58:02;;;;;;;;;;;7.70;99.90;;;;;;4949183;28;20069;-47
2022/10/03 06:00:44;;;;;;;7.80;3.30;;;7.80;99.90;;;;;;4987434;28;19910;-52
2022/10/03 06:03:31;;;;;;;4.53;2.50;;;7.80;99.90;;;;;;4991802;28;20109;-55
2022/10/03 06:06:23;;;;;;;7.30;2.70;;;7.90;99.90;;;;;;4991905;28;20046;-50
2022/10/03 06:09:15;;;;;;;5.57;2.50;;;7.90;99.90;;;;;;4951862;28;20501;-50
2022/10/03 06:12:13;;;;;;;8.20;3.03;;;7.90;99.90;;;;;;4992000;28;20469;-48
2022/10/03 06:14:54;;;;;;;6.68;2.80;;;7.90;99.90;;;;;;4991285;28;20034;-53
2022/10/03 06:17:44;;;;;;;6.40;2.42;;;7.90;99.90;;;;;;4991780;28;20033;-55
2022/10/03 06:20:46;;;;;;;5.90;2.30;;;7.90;99.90;;;;;;4996333;28;20113;-49
2022/10/03 06:23:30;;;;;;;8.27;2.70;;;7.90;99.90;;;;;;5011355;28;20038;-47
2022/10/03 06:26:25;;;;;;;9.98;2.95;;;8.00;99.90;;;;;;5011104;28;20045;-47
2022/10/03 06:28:56;;;;;;;10.52;3.88;;;8.10;99.90;;;;;;5011121;28;20026;-49
2022/10/03 06:31:49;;;;;;;6.32;3.00;;;8.20;99.90;;;;;;5011230;28;20033;-54
2022/10/03 06:34:20;;;;;;;7.47;3.00;;;8.30;99.90;;;;;;5006088;28;20034;-50
2022/10/03 06:37:01;;;;;;;9.93;2.78;;;8.40;99.90;;;;;;5006680;28;20381;-49
2022/10/03 06:40:05;;;;;;;6.60;2.40;;;8.50;99.90;;;;;;5011159;28;20032;-47
2022/10/03 06:42:53;;;;;;;4.82;2.63;;;8.60;99.90;;;;;;4936263;28;20049;-51
2022/10/03 06:45:56;;;;;;;7.40;3.03;;;8.80;99.90;;;;;;4991148;28;20035;-49
2022/10/03 06:48:48;;;;;;;5.20;2.40;;;8.90;99.90;;;;;;4979043;28;20065;-50
2022/10/03 06:51:19;;;;;;;9.40;3.10;;;8.90;99.90;;;;;;4984544;28;20034;-51
2022/10/03 06:54:22;;;;;;;6.80;2.33;;;9.10;99.90;;;;;;4991183;28;20657;-48
2022/10/03 06:57:18;;;;;;;4.93;2.17;;;9.20;99.90;;;;;;4991064;28;20490;-49
2022/10/03 07:00:01;;;;;;;6.13;2.63;;;9.30;99.90;;;;;;4991204;28;20101;-49
2022/10/03 07:02:40;;;;;;;4.10;2.10;;;9.30;99.90;;;;;;4986309;28;20027;-48
2022/10/03 07:05:24;;;;;;;6.85;3.58;;;9.30;99.90;;;;;;4991064;28;20113;-52
2022/10/03 07:08:08;;;;;;;5.90;2.88;;;9.40;99.90;;;;;;4990450;28;20248;-48
2022/10/03 07:10:53;;;;;;;9.30;3.50;;;9.50;99.90;;;;;;4991058;28;20053;-49
2022/10/03 07:13:41;;;;;;;5.80;2.63;;;9.60;99.90;;;;;;4991189;28;20027;-55
2022/10/03 07:16:38;;;;;;;8.40;3.45;;;9.80;99.90;;;;;;4988666;28;20027;-47
2022/10/03 07:19:24;;;;;;;7.65;2.88;;;9.90;99.90;;;;;;4991238;28;20150;-50
2022/10/03 07:21:55;;;;;;;10.20;2.90;;;10.00;99.90;;;;;;5004988;28;20019;-52
2022/10/03 07:24:52;;;;;;;6.35;3.10;;;10.10;99.90;;;;;;4989651;28;20065;-47
2022/10/03 07:27:21;;;;;;;7.55;3.20;;;10.20;99.90;;;;;;4986963;28;20081;-55
2022/10/03 07:30:16;;;;;;;8.77;3.00;;;10.20;99.90;;;;;;4988302;28;20023;-49
2022/10/03 07:32:56;;;;;;;10.35;3.58;;;10.20;99.90;;;;;;4972291;28;20074;-49
2022/10/03 07:38:57;;;;;;;8.77;3.00;;;10.30;99.90;;;;;;4990895;28;20041;-46
2022/10/03 07:42:02;;;;;;;6.50;3.03;;;10.40;99.90;;;;;;4991156;28;20113;-47
2022/10/03 07:44:34;;;;;;;9.60;3.08;;;10.50;99.90;;;;;;4990705;28;20085;-48
2022/10/03 07:47:47;;;;;;;9.88;3.38;;;10.70;99.90;;;;;;4993321;28;20034;-50
2022/10/03 07:50:40;;;;;;;4.85;3.13;;;10.90;99.90;;;;;;4977179;28;20034;-49
2022/10/03 07:53:30;;;;;;;11.23;3.88;;;11.10;99.90;;;;;;4984864;28;20038;-48
2022/10/03 07:56:07;;;;;;;9.93;3.13;;;11.30;99.90;;;;;;4994374;28;20122;-46
2022/10/03 07:59:10;;;;;;;9.90;3.50;;;11.50;99.90;;;;;;4993868;28;20042;-50
2022/10/03 08:01:55;;;;;;;8.70;2.97;;;11.70;99.90;;;;;;4992752;28;20493;-47
2022/10/03 08:04:57;;;;;;;5.82;3.20;;;11.80;99.90;;;;;;4975957;28;20409;-46
2022/10/03 08:07:44;;;;;;;6.82;2.60;;;11.80;99.90;;;;;;4994151;28;20034;-46
2022/10/03 08:10:43;;;;;;;8.82;2.58;;;11.90;99.90;;;;;;4969867;28;20410;-50
2022/10/03 08:13:09;;;;;;;8.40;2.97;;;11.90;99.90;;;;;;4994203;28;20109;-50
2022/10/03 08:15:46;;;;;;;6.57;2.40;;;12.00;99.90;;;;;;4994193;28;20098;-49
2022/10/03 08:18:35;;;;;;;6.43;2.42;;;12.10;99.90;;;;;;4994010;28;20022;-49
2022/10/03 08:21:08;;;;;;;7.60;2.63;;;12.20;99.90;;;;;;5005852;28;20108;-46
2022/10/03 08:23:59;;;;;;;8.57;2.65;;;12.40;99.90;;;;;;5013488;28;20500;-45
2022/10/03 08:26:38;;;;;;;6.72;3.00;;;12.60;99.90;;;;;;5013433;28;20036;-44
2022/10/03 08:29:19;;;;;;;11.60;3.38;;;12.70;99.90;;;;;;5013046;28;20053;-43
2022/10/03 08:32:02;;;;;;;11.95;3.17;;;12.90;99.90;;;;;;5013285;28;20125;-44
2022/10/03 08:35:06;;;;;;;13.20;3.58;;;13.00;99.90;;;;;;5013269;28;20072;-48
2022/10/03 08:38:09;;;;;;;11.18;3.63;;;13.10;99.90;;;;;;5008661;28;20409;-45
2022/10/03 08:40:40;;;;;;;8.43;3.08;;;13.30;99.90;;;;;;4987701;28;20022;-42
2022/10/03 08:43:20;;;;;;;5.90;2.65;;;13.40;99.90;;;;;;4983823;28;20056;-50
2022/10/03 08:45:55;;;;;;;7.03;2.63;;;13.60;99.90;;;;;;4992234;28;20390;-46
2022/10/03 08:48:52;;;;;;;8.80;2.80;;;13.60;99.90;;;;;;4991487;28;20026;-44
2022/10/03 08:52:09;;;;;;;6.53;2.80;;;13.60;99.90;;;;;;4974596;28;20026;-46
2022/10/03 08:55:02;;;;;;;7.32;3.67;;;13.70;99.90;;;;;;4991310;28;20033;-50
2022/10/03 08:57:46;;;;;;;7.88;3.05;;;14.00;99.90;;;;;;4992090;28;20030;-51
2022/10/03 09:00:20;;;;;;;6.40;2.38;;;14.30;99.90;;;;;;4992170;28;20658;-46
2022/10/03 09:03:27;;;;;;;8.88;3.03;;;14.50;99.90;;;;;;4992347;28;20052;-50
2022/10/03 09:06:02;;;;;;;8.45;3.05;;;14.50;99.90;;;;;;4988750;28;20507;-47
2022/10/03 09:08:27;;;;;;;6.65;2.50;;;14.80;99.90;;;;;;4992625;28;20026;-48
2022/10/03 09:11:21;;;;;;;6.28;2.42;;;14.80;99.90;;;;;;4992990;28;20130;-43
2022/10/03 09:13:56;;;;;;;9.60;3.05;;;14.90;99.90;;;;;;4992006;28;20390;-49
2022/10/03 09:16:43;;;;;;;5.82;2.30;;;14.80;99.90;;;;;;4992263;28;20030;-44
2022/10/03 09:19:19;;;;;;;11.00;3.97;;;14.90;99.90;;;;;;4991787;28;20069;-52
2022/10/03 09:21:45;;;;;;;6.28;2.50;;;15.30;99.90;;;;;;5010187;28;20033;-48
2022/10/03 09:24:28;;;;;;;9.55;2.67;;;16.20;99.90;;;;;;5008071;28;20113;-49
2022/10/03 09:27:13;;;;;;;8.93;2.15;;;16.80;99.90;;;;;;5012360;28;21202;-52
2022/10/03 09:29:57;;;;;;;9.55;2.63;;;16.90;99.90;;;;;;5005684;28;20105;-50
2022/10/03 09:32:28;;;;;;;10.05;2.30;;;16.90;99.90;;;;;;4992018;28;20030;-50
2022/10/03 09:35:06;;;;;;;9.00;2.50;;;16.80;99.90;;;;;;4991901;28;20105;-50
2022/10/03 09:37:59;;;;;;;9.38;2.70;;;16.80;99.90;;;;;;4992035;28;20073;-50
2022/10/03 09:40:43;;;;;;;6.07;2.40;;;16.80;99.90;;;;;;4991872;28;20030;-49
2022/10/03 09:43:44;;;;;;;8.43;2.95;;;16.70;99.90;;;;;;4991835;28;20018;-49
2022/10/03 09:46:29;;;;;;;8.55;2.22;;;16.50;99.90;;;;;;4989391;28;20417;-48
2022/10/03 09:49:23;;;;;;;7.40;2.30;;;16.40;99.90;;;;;;4991749;28;20014;-46
2022/10/03 09:52:23;;;;;;;8.50;2.75;;;16.30;99.90;;;;;;4991742;28;20503;-51
2022/10/03 09:55:11;;;;;;;10.18;2.88;;;16.30;99.90;;;;;;4988852;28;20034;-52
2022/10/03 09:58:10;;;;;;;8.63;3.42;;;16.40;99.90;;;;;;4991938;28;20500;-51
2022/10/03 10:00:50;;;;;;;11.10;4.23;;;16.60;99.90;;;;;;4982779;28;20083;-47
2022/10/03 10:03:40;;;;;;;12.43;3.35;;;16.80;99.90;;;;;;4974598;28;20022;-46
2022/10/03 10:06:35;;;;;;;10.00;3.50;;;17.00;99.90;;;;;;4991773;28;20389;-46
2022/10/03 10:09:04;;;;;;;11.00;3.60;;;17.20;99.90;;;;;;4917332;28;20059;-52
2022/10/03 10:11:58;;;;;;;12.33;3.60;;;17.10;99.90;;;;;;4989019;28;20389;-52
2022/10/03 10:14:42;;;;;;;9.85;3.05;;;17.10;99.90;;;;;;4991731;28;20030;-46
2022/10/03 10:17:25;;;;;;;9.82;3.30;;;17.10;99.90;;;;;;4991060;28;20030;-46
2022/10/03 10:20:25;;;;;;;10.65;2.95;;;17.20;99.90;;;;;;4993589;28;20114;-46
2022/10/03 10:23:14;;;;;;;11.05;3.00;;;17.90;99.90;;;;;;5004259;28;20442;-44
2022/10/03 10:26:01;;;;;;;6.88;2.55;;;18.40;99.90;;;;;;4980095;28;20089;-46
2022/10/03 10:28:51;;;;;;;10.75;2.78;;;18.80;99.90;;;;;;4990699;28;20030;-44
2022/10/03 10:31:38;;;;;;;12.85;2.35;;;18.60;99.90;;;;;;4991359;28;20022;-48
2022/10/03 10:34:19;;;;;;;10.52;2.95;;;18.60;99.90;;;;;;4988698;28;20034;-47
2022/10/03 10:36:56;;;;;;;7.80;2.28;;;18.40;99.90;;;;;;4991052;28;20030;-52
2022/10/03 10:39:43;;;;;;;12.35;2.00;;;19.00;99.90;;;;;;4990983;28;20030;-51
2022/10/03 10:42:42;;;;;;;10.73;2.53;;;20.10;99.90;;;;;;4991071;28;20031;-44
2022/10/03 10:45:37;;;;;;;7.80;1.95;;;20.60;99.90;;;;;;4991114;28;20053;-50
2022/10/03 10:48:33;;;;;;;14.57;3.00;;;20.60;99.90;;;;;;4984025;28;20038;-44
2022/10/03 10:51:36;;;;;;;7.28;2.30;;;20.20;99.90;;;;;;4991264;28;20018;-49
2022/10/03 10:54:26;;;;;;;7.82;2.50;;;20.50;99.90;;;;;;4991233;28;20108;-49
2022/10/03 10:57:43;;;;;;;9.15;2.30;;;21.20;99.90;;;;;;4991288;28;20031;-48
2022/10/03 11:00:32;;;;;;;8.48;2.70;;;21.10;99.90;;;;;;4940577;28;20042;-47
2022/10/03 11:03:46;;;;;;;8.77;2.50;;;20.50;99.90;;;;;;4991027;28;20030;-52
2022/10/03 11:06:16;;;;;;;7.97;2.20;;;19.70;99.90;;;;;;4931437;28;20050;-46
2022/10/03 11:08:59;;;;;;;6.90;2.17;;;19.60;99.90;;;;;;4990906;28;20038;-45
2022/10/03 11:12:06;;;;;;;7.78;2.50;;;19.80;99.90;;;;;;4988817;28;20028;-45
2022/10/03 11:14:46;;;;;;;8.52;2.88;;;20.10;99.90;;;;;;4991146;28;20015;-49
2022/10/03 11:17:43;;;;;;;8.98;1.80;;;20.70;99.90;;;;;;4991267;28;20038;-53
2022/10/03 11:21:02;;;;;;;8.80;1.85;;;20.70;99.90;;;;;;4986902;28;20477;-53
2022/10/03 11:24:05;;;;;;;6.93;1.70;;;21.00;99.90;;;;;;5014457;28;20080;-46
2022/10/03 11:26:51;;;;;;;5.78;1.60;;;21.60;99.90;;;;;;5014414;28;20038;-52
2022/10/03 11:29:39;;;;;;;8.82;1.65;;;21.80;98.80;;;;;;4997005;28;20014;-45
2022/10/03 11:32:39;;;;;;;9.18;1.77;;;21.70;97.50;;;;;;5014430;28;20041;-53
2022/10/03 11:35:26;;;;;;;5.82;1.58;;;21.80;96.70;;;;;;4997016;28;20054;-46
2022/10/03 11:38:21;;;;;;;7.20;1.67;;;21.90;97.70;;;;;;5014508;28;20038;-47
2022/10/03 11:41:03;;;;;;;6.63;1.55;;;22.00;95.90;;;;;;5009108;28;20124;-46
2022/10/03 11:43:58;;;;;;;9.32;2.10;;;21.50;96.40;;;;;;5003919;28;20113;-50
2022/10/03 11:47:03;;;;;;;7.97;1.60;;;21.60;98.70;;;;;;4996786;28;20042;-48
2022/10/03 11:49:47;;;;;;;9.60;1.98;;;21.60;97.90;;;;;;4951293;28;20034;-48
2022/10/03 11:52:46;;;;;;;5.75;1.38;;;21.90;97.50;;;;;;4997401;28;20023;-48
2022/10/03 11:55:38;;;;;;;6.50;1.60;;;22.20;97.00;;;;;;4994006;28;20061;-45
2022/10/03 11:58:32;;;;;;;7.30;1.45;;;22.00;96.10;;;;;;4988453;28;20038;-54
2022/10/03 12:01:24;;;;;;;6.35;1.50;;;21.60;95.70;;;;;;4993301;28;20436;-49
2022/10/03 12:04:06;;;;;;;6.35;1.30;;;21.40;98.30;;;;;;4947590;28;20031;-44
2022/10/03 12:09:44;;;;;;;;;;;20.40;98.30;;;;;;4994809;28;20065;-44
2022/10/03 12:12:22;;;;;;;5.80;1.45;;;20.00;97.60;;;;;;4994156;28;20020;-43
2022/10/03 12:14:51;;;;;;;11.20;2.08;;;20.10;99.50;;;;;;4994384;28;20045;-49
2022/10/03 12:17:35;;;;;;;7.82;1.80;;;20.50;99.30;;;;;;4994259;28;20026;-48
2022/10/03 12:20:25;;;;;;;7.97;1.63;;;20.40;99.90;;;;;;4997466;28;20044;-49
2022/10/03 12:23:06;;;;;;;7.40;1.92;;;20.10;98.50;;;;;;5013627;28;20362;-45
2022/10/03 12:25:35;;;;;;;9.05;1.70;;;19.50;98.50;;;;;;4970673;28;20038;-44
2022/10/03 12:28:20;;;;;;;;;;;19.30;99.50;;;;;;5001089;28;20023;-44
2022/10/03 12:31:10;;;;;;;6.47;1.60;;;19.30;99.90;;;;;;4982254;28;19910;-46
2022/10/03 12:33:53;;;;;;;9.25;1.80;;;19.00;99.90;;;;;;5010198;28;20033;-51
2022/10/03 12:36:22;;;;;;;6.63;1.52;;;19.00;99.90;;;;;;5002426;28;20169;-51
2022/10/03 12:39:18;;;;;;;8.37;2.00;;;18.80;99.90;;;;;;5010914;28;20029;-47
2022/10/03 12:42:14;;;;;;;6.25;1.60;;;18.60;99.90;;;;;;5013442;28;20034;-47
2022/10/03 12:44:48;;;;;;;4.68;1.70;;;18.50;99.90;;;;;;4996770;28;20489;-44
2022/10/03 12:47:47;;;;;;;10.13;2.22;;;18.50;99.90;;;;;;4990256;28;20034;-43
2022/10/03 12:50:12;;;;;;;6.83;1.50;;;18.40;99.90;;;;;;4992800;28;20015;-45
2022/10/03 12:53:16;;;;;;;9.40;1.98;;;18.60;99.90;;;;;;4992835;28;20318;-46
2022/10/03 12:56:13;;;;;;;5.47;1.65;;;18.40;99.90;;;;;;4991240;28;20026;-49
2022/10/03 12:58:48;;;;;;;5.40;1.70;;;18.40;99.90;;;;;;4992820;28;20049;-48
2022/10/03 13:01:24;;;;;;;5.47;1.40;;;18.50;99.90;;;;;;4992577;28;20030;-49
2022/10/03 13:03:52;;;;;;;7.07;1.80;;;18.70;99.90;;;;;;4993076;28;20101;-48
2022/10/03 13:06:32;;;;;;;8.38;1.52;;;18.70;99.90;;;;;;4993157;28;20041;-54
2022/10/03 13:09:09;;;;;;;7.88;1.77;;;18.90;99.90;;;;;;4993043;28;20015;-47
2022/10/03 13:12:12;;;;;;;5.07;1.42;;;18.90;99.90;;;;;;4992698;28;20490;-48
2022/10/03 13:15:16;;;;;;;10.13;1.88;;;18.90;99.90;;;;;;4975504;28;20041;-51
2022/10/03 13:17:45;;;;;;;7.25;1.95;;;19.10;99.90;;;;;;4984346;28;20122;-49
2022/10/03 13:20:32;;;;;;;6.53;1.77;;;19.30;99.90;;;;;;4997852;28;20026;-50
2022/10/03 13:23:23;;;;;;;9.25;1.80;;;19.40;99.90;;;;;;5012854;28;20113;-47
2022/10/03 13:25:58;;;;;;;5.68;1.88;;;19.30;99.90;;;;;;4996295;28;20417;-54
2022/10/03 13:28:35;;;;;;;5.40;1.42;;;19.10;99.90;;;;;;4992640;28;20090;-49
2022/10/03 13:31:12;;;;;;;7.95;1.50;;;18.90;99.90;;;;;;4983280;28;20030;-46
2022/10/03 13:33:50;;;;;;;5.65;1.48;;;19.00;99.90;;;;;;4992474;28;20397;-48
2022/10/03 13:36:25;;;;;;;5.93;1.45;;;18.90;99.90;;;;;;4984301;28;20045;-48
2022/10/03 13:39:18;;;;;;;8.20;1.80;;;19.00;99.90;;;;;;4992438;28;20101;-49
2022/10/03 13:41:58;;;;;;;5.75;1.67;;;19.10;99.90;;;;;;4992546;28;20034;-46
2022/10/03 13:44:47;;;;;;;5.22;1.67;;;19.10;99.90;;;;;;4991928;28;20061;-47
2022/10/03 13:47:37;;;;;;;7.28;1.75;;;19.00;99.90;;;;;;4992312;28;20026;-45
2022/10/03 13:50:11;;;;;;;7.63;1.75;;;19.00;99.90;;;;;;4985480;28;20367;-50
2022/10/03 13:52:46;;;;;;;8.40;1.70;;;18.90;99.90;;;;;;4992391;28;20026;-50
2022/10/03 13:55:30;;;;;;;7.20;1.83;;;18.80;99.90;;;;;;4992253;28;20077;-50
2022/10/03 13:58:17;;;;;;;7.45;1.85;;;18.80;99.20;;;;;;4991930;28;20097;-48
2022/10/03 14:01:14;;;;;;;9.27;1.50;;;18.80;99.90;;;;;;4992348;28;20076;-46
2022/10/03 14:04:10;;;;;;;6.68;1.52;;;18.80;99.90;;;;;;4985826;28;20109;-49
2022/10/03 14:07:00;;;;;;;8.63;1.73;;;18.70;99.90;;;;;;4987680;28;20031;-54
2022/10/03 14:09:56;;;;;;;7.63;1.77;;;18.60;99.90;;;;;;4991774;28;20030;-52
2022/10/03 14:12:48;;;;;;;4.90;1.25;;;18.50;99.90;;;;;;4990927;28;20400;-51
2022/10/03 14:15:25;;;;;;;7.32;1.73;;;18.50;99.90;;;;;;4981343;28;20109;-51
2022/10/03 14:18:06;;;;;;;11.20;1.92;;;18.50;99.90;;;;;;4991827;28;20029;-48
2022/10/03 14:20:53;;;;;;;7.03;1.55;;;18.50;99.90;;;;;;4999307;28;20025;-52
2022/10/03 14:23:23;;;;;;;4.85;1.42;;;18.50;99.90;;;;;;4997534;28;20030;-53
2022/10/03 14:26:10;;;;;;;8.57;1.80;;;18.50;99.90;;;;;;4990959;28;20034;-49
2022/10/03 14:29:23;;;;;;;8.35;1.80;;;18.30;99.90;;;;;;5011340;28;20018;-49
2022/10/03 14:32:14;;;;;;;10.38;1.80;;;18.30;99.90;;;;;;5002435;28;22226;-48
2022/10/03 14:34:57;;;;;;;8.13;1.58;;;18.20;99.90;;;;;;5011443;28;20033;-50
2022/10/03 14:37:41;;;;;;;12.73;2.05;;;18.10;99.90;;;;;;5011383;28;20084;-49
2022/10/03 14:40:29;;;;;;;7.88;1.85;;;18.00;99.90;;;;;;5011058;28;20428;-50
2022/10/03 14:43:32;;;;;;;6.20;1.52;;;18.00;99.90;;;;;;5001072;28;20053;-51